Aviation Digital Data Service (ADDS)

Output produced by METARs form (1821 UTC 22 November 2017)
found at http://www.aviationweather.gov/adds/metars/
 
OLBA 221800Z 27005KT 240V330 8000 BKN040 16/03 Q1019 NOSIG
TAF OLBA 221600Z 2218/2324 33012KT 8000 BKN040 
     BECMG 2222/2224 15006KT SCT030 
     BECMG 2306/2308 28012KT 8000 SCT030 BKN180 
     PROB30 
     TEMPO 2314/2318 24014KT 7000 RA BKN026 
     BECMG 2318/2821 16006KT BKN030